Time;durP1;ratioP1;P1;durP2;ratioP2;P2;SDS_P1;SDS_P2;PMS_P1;PMS_P2;Temp;Humidity;BMP_temperature;BMP_pressure;BME280_temperature;BME280_humidity;BME280_pressure;Samples;Min_cycle;Max_cycle;Signal;HPM_P1;HPM_P2
2022/07/20 00:00:33;;;;;;;1.90;1.70;;;;;;;14.56;84.46;101010.13;5092566;28;20376;-71
2022/07/20 00:03:09;;;;;;;1.83;1.60;;;;;;;14.49;84.64;100993.13;5092724;28;20028;-69
2022/07/20 00:05:36;;;;;;;3.13;2.00;;;;;;;14.51;84.36;101016.03;5092979;28;20035;-73
2022/07/20 00:08:02;;;;;;;2.10;1.83;;;;;;;14.50;84.65;101006.34;5092983;28;20050;-70
2022/07/20 00:13:14;;;;;;;2.00;1.80;;;;;;;14.43;84.02;101013.41;5074435;28;20067;-70
2022/07/20 00:15:41;;;;;;;2.30;1.80;;;;;;;14.51;83.56;101026.75;5092746;28;20040;-71
2022/07/20 00:18:06;;;;;;;2.90;1.70;;;;;;;14.44;83.59;101009.72;5092904;28;20066;-69
2022/07/20 00:20:32;;;;;;;2.27;2.03;;;;;;;14.48;83.85;101027.13;5075111;28;20036;-70
2022/07/20 00:22:58;;;;;;;2.37;1.90;;;;;;;14.43;83.99;101016.09;5094422;28;20028;-70
2022/07/20 00:25:24;;;;;;;1.80;1.70;;;;;;;14.43;83.32;101017.94;5076547;28;20411;-71
2022/07/20 00:27:54;;;;;;;3.27;1.50;;;;;;;14.39;83.53;101022.81;5092826;28;20048;-73
2022/07/20 00:30:24;;;;;;;1.70;1.50;;;;;;;14.35;83.35;101016.16;5092602;28;20560;-71
2022/07/20 00:32:50;;;;;;;2.17;1.97;;;;;;;14.36;84.04;101023.16;5092680;28;20031;-71
2022/07/20 00:35:17;;;;;;;2.40;1.77;;;;;;;14.36;83.65;101022.34;5092503;28;20032;-70
2022/07/20 00:37:43;;;;;;;3.60;1.67;;;;;;;14.40;83.36;101029.00;5092441;28;20039;-71
2022/07/20 00:40:11;;;;;;;2.03;1.57;;;;;;;14.41;83.36;101028.81;5092689;28;20081;-70
2022/07/20 00:42:37;;;;;;;1.87;1.57;;;;;;;14.40;83.13;101031.66;5094159;28;20371;-72
2022/07/20 00:45:03;;;;;;;2.10;1.47;;;;;;;14.38;83.15;101031.03;5079745;28;20036;-68
2022/07/20 00:47:29;;;;;;;1.63;1.53;;;;;;;14.38;82.82;101031.84;5080926;28;20057;-70
2022/07/20 00:49:54;;;;;;;1.63;1.27;;;;;;;14.42;83.05;101033.16;5094147;28;20028;-71
2022/07/20 00:52:20;;;;;;;1.87;1.50;;;;;;;14.41;83.10;101042.22;5092229;28;20027;-71
2022/07/20 00:54:48;;;;;;;2.80;1.60;;;;;;;14.41;83.17;101036.84;5092243;28;20465;-71
2022/07/20 00:57:15;;;;;;;3.08;1.60;;;;;;;14.41;82.86;101036.00;5092047;28;20127;-69
2022/07/20 00:59:41;;;;;;;1.30;1.20;;;;;;;14.40;83.26;101034.34;5091961;28;20489;-71
2022/07/20 01:02:07;;;;;;;2.00;1.57;;;;;;;14.32;83.36;101031.75;5091860;28;20059;-71
2022/07/20 01:04:33;;;;;;;1.67;1.57;;;;;;;14.30;83.34;101039.97;5092449;28;20089;-69
2022/07/20 01:06:58;;;;;;;2.27;1.30;;;;;;;14.35;82.97;101042.09;5092022;28;20399;-70
2022/07/20 01:09:24;;;;;;;2.37;1.80;;;;;;;14.33;83.37;101042.28;5092059;28;20048;-70
2022/07/20 01:11:50;;;;;;;2.13;1.57;;;;;;;14.33;83.17;101036.09;5092023;28;20040;-70
2022/07/20 01:14:15;;;;;;;3.27;1.60;;;;;;;14.32;83.24;101040.63;5092038;28;20035;-72
2022/07/20 01:16:41;;;;;;;1.70;1.47;;;;;;;14.25;83.09;101037.84;5091998;28;20042;-70
2022/07/20 01:19:07;;;;;;;3.13;1.63;;;;;;;14.28;83.46;101042.00;5073818;28;20134;-70
2022/07/20 01:21:40;;;;;;;1.80;1.20;;;;;;;14.24;83.18;101035.34;5073707;28;20035;-71
2022/07/20 01:24:09;;;;;;;2.40;1.97;;;;;;;14.26;83.23;101044.84;5091952;28;20557;-71
2022/07/20 01:26:37;;;;;;;1.67;1.57;;;;;;;14.20;83.58;101034.03;5091920;28;20040;-70
2022/07/20 01:29:04;;;;;;;3.37;1.77;;;;;;;14.20;83.29;101031.34;5091758;28;20052;-69
2022/07/20 01:31:29;;;;;;;2.50;1.90;;;;;;;14.15;83.30;101031.88;5073654;28;20127;-69
2022/07/20 01:33:55;;;;;;;2.43;1.40;;;;;;;14.17;83.48;101039.75;5064764;28;20047;-68
2022/07/20 01:36:20;;;;;;;3.47;1.70;;;;;;;14.15;83.58;101031.03;5099689;28;20036;-69
2022/07/20 01:38:46;;;;;;;2.27;1.70;;;;;;;14.17;83.37;101037.06;5078178;28;20043;-70
2022/07/20 01:41:11;;;;;;;1.80;1.40;;;;;;;14.14;83.83;101040.09;5095906;28;20119;-70
2022/07/20 01:43:36;;;;;;;2.27;1.40;;;;;;;14.07;83.63;101039.13;5096006;28;20036;-69
2022/07/20 01:46:02;;;;;;;4.53;2.10;;;;;;;14.03;84.00;101035.16;5095717;28;20036;-69
2022/07/20 01:48:27;;;;;;;3.83;2.03;;;;;;;14.03;83.68;101033.31;5077969;28;20122;-70
2022/07/20 01:50:53;;;;;;;3.73;1.80;;;;;;;14.00;83.90;101043.56;5095830;28;20406;-70
2022/07/20 01:53:18;;;;;;;3.20;1.90;;;;;;;13.93;84.23;101038.91;5078357;28;20071;-70
2022/07/20 01:55:44;;;;;;;3.57;1.77;;;;;;;13.88;84.28;101043.97;5089232;28;20444;-70
2022/07/20 01:58:13;;;;;;;1.93;1.70;;;;;;;13.89;84.18;101048.31;5112987;28;20048;-69
2022/07/20 02:00:39;;;;;;;3.17;1.90;;;;;;;13.88;84.24;101051.16;5113268;28;20457;-71
2022/07/20 02:03:04;;;;;;;1.57;1.47;;;;;;;13.82;84.14;101038.47;5111722;28;20039;-70
2022/07/20 02:05:30;;;;;;;5.37;1.97;;;;;;;13.76;84.37;101053.41;5102944;28;20096;-70
2022/07/20 02:07:55;;;;;;;2.73;1.80;;;;;;;13.69;84.68;101044.41;5099988;28;20398;-72
2022/07/20 02:10:21;;;;;;;2.23;1.60;;;;;;;13.66;84.55;101047.44;5095196;28;20036;-70
2022/07/20 02:12:46;;;;;;;1.70;1.60;;;;;;;13.66;84.57;101058.16;5077325;28;20035;-71
2022/07/20 02:16:14;;;;;;;2.87;1.83;;;;;;;13.59;84.50;101044.66;5095421;28;20036;-70
2022/07/20 02:17:58;;;;;;;2.03;1.80;;;;;;;13.58;85.06;101055.50;5095473;28;20032;-71
2022/07/20 02:20:23;;;;;;;2.13;1.70;;;;;;;13.54;84.56;101043.47;5095089;28;20046;-71
2022/07/20 02:22:49;;;;;;;1.90;1.67;;;;;;;13.58;84.37;101052.81;5095618;28;20126;-71
2022/07/20 02:25:14;;;;;;;4.57;2.40;;;;;;;13.53;84.30;101055.19;5094804;28;20109;-69
2022/07/20 02:27:42;;;;;;;2.50;1.93;;;;;;;13.51;84.71;101049.19;5076363;28;20047;-71
2022/07/20 02:30:10;;;;;;;6.05;2.25;;;;;;;13.52;84.21;101050.84;5094653;28;20043;-71
2022/07/20 02:32:36;;;;;;;5.38;2.05;;;;;;;13.51;84.42;101039.31;5094577;28;20035;-71
2022/07/20 02:35:01;;;;;;;1.90;1.67;;;;;;;13.51;84.33;101038.47;5076672;28;20063;-72
2022/07/20 02:37:28;;;;;;;2.53;1.50;;;;;;;13.52;83.92;101043.66;5094692;28;20117;-70
2022/07/20 02:39:54;;;;;;;3.00;1.70;;;;;;;13.49;83.86;101038.66;5094710;28;20119;-70
2022/07/20 02:42:19;;;;;;;1.80;1.50;;;;;;;13.51;83.65;101043.81;5094663;28;20024;-69
2022/07/20 02:44:45;;;;;;;1.40;1.30;;;;;;;13.51;83.73;101059.88;5094600;28;20031;-72
2022/07/20 02:47:10;;;;;;;3.83;2.07;;;;;;;13.55;83.66;101058.53;5092976;28;20035;-70
2022/07/20 02:49:36;;;;;;;2.33;1.50;;;;;;;13.50;83.27;101056.38;5093992;28;20035;-70
2022/07/20 02:52:02;;;;;;;2.50;2.30;;;;;;;13.54;83.45;101059.53;5094330;28;20057;-70
2022/07/20 02:54:27;;;;;;;3.17;2.00;;;;;;;13.49;83.46;101057.38;5094330;28;20411;-69
2022/07/20 02:56:52;;;;;;;2.10;1.90;;;;;;;13.55;83.28;101064.69;5094389;28;20483;-69
2022/07/20 02:59:19;;;;;;;1.73;1.63;;;;;;;13.55;83.35;101062.03;5094541;28;20131;-71
2022/07/20 03:01:45;;;;;;;1.83;1.63;;;;;;;13.55;83.22;101064.69;5095010;28;20127;-69
2022/07/20 03:04:11;;;;;;;3.77;1.70;;;;;;;13.70;82.44;101069.34;5094872;28;20043;-71
2022/07/20 03:06:36;;;;;;;3.80;2.17;;;;;;;15.05;78.14;101058.72;5094270;28;20490;-71
2022/07/20 03:09:02;;;;;;;2.57;2.37;;;;;;;16.98;70.59;101074.03;5094378;28;20032;-71
2022/07/20 03:11:28;;;;;;;2.50;2.30;;;;;;;18.70;64.39;101069.25;5093820;28;20035;-72
2022/07/20 03:13:53;;;;;;;2.67;2.47;;;;;;;19.76;60.19;101077.09;5093954;28;20040;-69
2022/07/20 03:16:19;;;;;;;2.57;2.00;;;;;;;20.22;57.56;101086.81;5093814;28;20452;-71
2022/07/20 03:18:44;;;;;;;2.23;2.03;;;;;;;20.44;56.82;101101.69;5093545;28;20040;-70
2022/07/20 03:21:10;;;;;;;2.23;1.93;;;;;;;20.66;55.95;101088.59;5093795;28;20039;-71
2022/07/20 03:23:35;;;;;;;1.93;1.73;;;;;;;20.85;55.40;101086.78;5093814;28;20032;-71
2022/07/20 03:26:01;;;;;;;2.33;2.20;;;;;;;21.04;53.81;101069.50;5093702;28;20036;-71
2022/07/20 03:28:27;;;;;;;2.10;1.80;;;;;;;21.35;53.43;101092.97;5075236;28;20617;-69
2022/07/20 03:30:55;;;;;;;2.10;1.90;;;;;;;21.79;50.36;101097.22;5093266;28;20401;-70
2022/07/20 03:33:20;;;;;;;1.80;1.60;;;;;;;22.01;49.76;101091.31;5075029;28;20569;-70
2022/07/20 03:35:46;;;;;;;2.50;2.05;;;;;;;21.80;50.25;101098.88;5075394;28;20036;-71
2022/07/20 03:38:11;;;;;;;2.63;1.50;;;;;;;21.88;50.03;101098.56;5093703;28;20403;-69
2022/07/20 03:40:37;;;;;;;3.90;2.58;;;;;;;20.93;51.91;101105.44;5093178;28;20398;-69
2022/07/20 03:43:02;;;;;;;1.88;1.60;;;;;;;19.70;55.37;101110.41;5093487;28;20059;-70
2022/07/20 03:45:28;;;;;;;1.80;1.40;;;;;;;18.02;60.80;101100.88;5075115;28;20062;-69
2022/07/20 03:47:54;;;;;;;1.67;1.47;;;;;;;17.41;64.26;101098.13;5093110;28;20032;-72
2022/07/20 03:50:19;;;;;;;3.07;1.70;;;;;;;17.07;66.09;101104.31;5093142;28;20040;-71
2022/07/20 03:52:45;;;;;;;1.67;1.57;;;;;;;17.15;66.10;101104.16;5078879;28;20563;-69
2022/07/20 03:55:10;;;;;;;2.60;1.40;;;;;;;17.11;65.61;101091.31;5067398;28;20036;-69
2022/07/20 03:57:36;;;;;;;1.80;1.60;;;;;;;16.86;67.15;101104.38;5094978;28;20036;-71
2022/07/20 04:00:07;;;;;;;1.97;1.60;;;;;;;16.66;68.23;101099.66;5092569;28;20036;-70
2022/07/20 04:02:33;;;;;;;3.83;2.53;;;;;;;17.38;65.79;101103.91;5092669;28;20034;-71
2022/07/20 04:04:58;;;;;;;5.27;2.40;;;;;;;18.64;60.58;101107.84;5092949;28;20059;-72
2022/07/20 04:07:24;;;;;;;3.03;2.50;;;;;;;19.76;56.86;101109.53;5092742;28;20552;-70
2022/07/20 04:09:50;;;;;;;3.40;2.03;;;;;;;20.83;53.04;101100.56;5092890;28;20036;-71
2022/07/20 04:12:18;;;;;;;2.87;2.23;;;;;;;21.46;50.92;101123.91;5092773;28;20044;-71
2022/07/20 04:14:45;;;;;;;4.10;2.67;;;;;;;21.76;50.28;101113.97;5092631;28;20544;-70
2022/07/20 04:17:10;;;;;;;5.93;2.22;;;;;;;22.10;49.24;101109.78;5092750;28;20039;-70
2022/07/20 04:19:37;;;;;;;5.57;1.85;;;;;;;21.82;49.23;101126.59;5092860;28;20040;-69
2022/07/20 04:22:03;;;;;;;4.15;2.67;;;;;;;21.92;49.35;101118.75;5092815;28;20036;-72
2022/07/20 04:24:28;;;;;;;2.50;2.30;;;;;;;22.10;48.77;101123.34;5092429;28;20570;-71
2022/07/20 04:26:54;;;;;;;4.50;2.05;;;;;;;21.93;48.72;101111.44;5092592;28;20047;-69
2022/07/20 04:29:23;;;;;;;2.92;2.22;;;;;;;22.45;48.30;101126.16;5092611;28;20060;-70
2022/07/20 04:31:50;;;;;;;2.10;1.90;;;;;;;22.98;46.59;101119.91;5092508;28;20044;-71
2022/07/20 04:34:16;;;;;;;2.03;1.85;;;;;;;22.67;47.15;101142.75;5092606;28;20471;-72
2022/07/20 04:36:42;;;;;;;1.95;1.85;;;;;;;22.28;47.99;101129.78;5092520;28;20028;-71
2022/07/20 04:39:07;;;;;;;2.60;2.13;;;;;;;21.92;49.22;101143.16;5092671;28;20036;-70
2022/07/20 04:41:33;;;;;;;1.80;1.70;;;;;;;21.63;49.98;101146.63;5092229;28;20043;-72
2022/07/20 04:43:59;;;;;;;4.13;1.85;;;;;;;21.92;49.51;101143.16;5091911;28;20486;-70
2022/07/20 04:46:24;;;;;;;2.30;1.38;;;;;;;21.50;50.78;101139.50;5092300;28;20082;-70
2022/07/20 04:48:50;;;;;;;2.47;1.75;;;;;;;21.40;50.56;101127.53;5094303;28;20487;-70
2022/07/20 04:51:15;;;;;;;2.75;1.55;;;;;;;21.62;49.83;101109.75;5095928;28;20036;-70
2022/07/20 04:53:41;;;;;;;1.83;1.73;;;;;;;21.94;49.46;101130.19;5094978;28;20028;-70
2022/07/20 04:56:07;;;;;;;3.85;1.67;;;;;;;22.31;48.44;101122.00;5094662;28;20051;-70
2022/07/20 04:58:32;;;;;;;1.60;1.27;;;;;;;22.45;48.17;101120.75;5074101;28;20541;-69
2022/07/20 05:00:59;;;;;;;5.85;1.42;;;;;;;22.58;47.39;101119.72;5092123;28;20040;-69
2022/07/20 05:03:26;;;;;;;1.38;1.27;;;;;;;22.67;47.20;101117.47;5092287;28;20036;-68
2022/07/20 05:05:52;;;;;;;2.65;1.40;;;;;;;22.25;48.17;101120.19;5091946;28;20040;-71
2022/07/20 05:08:17;;;;;;;2.22;1.83;;;;;;;21.88;48.65;101124.84;5092163;28;20032;-71
2022/07/20 05:10:42;;;;;;;2.83;1.35;;;;;;;21.77;49.27;101134.59;5097365;28;20047;-69
2022/07/20 05:13:08;;;;;;;4.20;1.75;;;;;;;21.45;50.20;101138.50;5086006;28;20082;-69
2022/07/20 05:15:34;;;;;;;4.53;2.15;;;;;;;21.69;50.09;101131.38;5102661;28;20032;-69
2022/07/20 05:17:59;;;;;;;1.58;1.45;;;;;;;21.36;50.73;101127.13;5099908;28;20032;-72
2022/07/20 05:20:25;;;;;;;3.60;1.95;;;;;;;20.66;52.82;101127.31;5096516;28;20036;-70
2022/07/20 05:22:50;;;;;;;2.50;1.65;;;;;;;20.26;53.82;101126.75;5096374;28;20126;-70
2022/07/20 05:25:16;;;;;;;2.70;1.10;;;;;;;19.61;56.29;101126.00;5096042;28;20032;-71
2022/07/20 05:27:41;;;;;;;3.30;1.30;;;;;;;18.61;59.22;101116.31;5095667;28;20039;-71
2022/07/20 05:30:08;;;;;;;1.27;1.17;;;;;;;17.82;62.63;101116.13;5096147;28;20056;-70
2022/07/20 05:32:34;;;;;;;1.27;1.10;;;;;;;17.33;64.89;101107.16;5096015;28;20054;-70
2022/07/20 05:34:59;;;;;;;4.32;1.40;;;;;;;17.25;66.07;101119.97;5095982;28;20119;-71
2022/07/20 05:37:25;;;;;;;4.05;1.45;;;;;;;17.10;66.42;101109.31;5095656;28;20047;-70
2022/07/20 05:39:50;;;;;;;1.98;1.55;;;;;;;16.91;66.83;101105.44;5095795;28;20092;-71
2022/07/20 05:42:15;;;;;;;4.57;1.42;;;;;;;16.72;67.37;101060.38;5077486;28;20028;-70
2022/07/20 05:44:41;;;;;;;1.30;1.20;;;;;;;17.03;67.29;101103.88;5095700;28;20032;-71
2022/07/20 05:47:06;;;;;;;3.58;1.75;;;;;;;17.09;67.07;101112.22;5095711;28;20472;-71
2022/07/20 05:49:33;;;;;;;1.77;1.63;;;;;;;17.00;67.26;101120.41;5095467;28;20052;-69
2022/07/20 05:51:59;;;;;;;5.90;1.40;;;;;;;16.96;67.04;101113.75;5095397;28;20032;-70
2022/07/20 05:54:27;;;;;;;2.65;1.75;;;;;;;16.98;67.08;101114.38;5102861;28;20042;-71
2022/07/20 05:56:53;;;;;;;3.00;1.20;;;;;;;17.00;66.90;101098.88;5089695;28;20040;-68
2022/07/20 05:59:18;;;;;;;3.30;1.60;;;;;;;17.03;66.89;101111.09;5101136;28;20040;-70
2022/07/20 06:01:51;;;;;;;4.20;1.40;;;;;;;17.01;67.47;101102.41;5080646;28;20050;-68
2022/07/20 06:04:19;;;;;;;1.48;1.38;;;;;;;17.03;66.83;101103.88;5097900;28;20051;-67
2022/07/20 06:06:46;;;;;;;2.03;1.30;;;;;;;16.99;66.89;101089.16;5098092;28;20047;-68
2022/07/20 06:09:12;;;;;;;2.60;1.47;;;;;;;17.16;67.04;101103.13;5095109;28;20498;-70
2022/07/20 06:11:37;;;;;;;3.47;1.60;;;;;;;17.18;66.63;101095.69;5095649;28;20135;-71
2022/07/20 06:14:03;;;;;;;6.80;1.40;;;;;;;17.29;66.88;101100.50;5083030;28;20028;-68
2022/07/20 06:16:28;;;;;;;1.83;1.58;;;;;;;17.29;66.11;101088.91;5104012;28;20039;-72
2022/07/20 06:18:54;;;;;;;4.75;1.65;;;;;;;17.40;65.37;101093.75;5076489;28;20483;-71
2022/07/20 06:21:20;;;;;;;3.22;1.25;;;;;;;17.43;63.94;101089.84;5094625;28;20039;-71
2022/07/20 06:23:45;;;;;;;4.28;1.45;;;;;;;17.44;64.66;101108.47;5076536;28;20032;-70
2022/07/20 06:26:10;;;;;;;3.15;1.67;;;;;;;17.46;64.90;101090.25;5094531;28;20119;-69
2022/07/20 06:28:37;;;;;;;2.33;1.48;;;;;;;17.57;64.18;101100.47;5059698;28;20047;-71
2022/07/20 06:31:04;;;;;;;1.15;1.05;;;;;;;17.57;63.61;101096.94;5094935;28;20074;-70
2022/07/20 06:33:29;;;;;;;3.00;1.40;;;;;;;17.59;63.47;101084.09;5076225;28;20574;-71
2022/07/20 06:35:55;;;;;;;2.28;1.23;;;;;;;17.71;63.28;101081.72;5094608;28;20115;-71
2022/07/20 06:38:20;;;;;;;2.83;1.30;;;;;;;17.79;63.65;101084.22;5059738;28;20024;-70
2022/07/20 06:40:46;;;;;;;6.15;1.75;;;;;;;17.89;62.18;101082.78;5094318;28;20051;-70
2022/07/20 06:43:11;;;;;;;3.40;1.40;;;;;;;18.02;62.14;101084.72;5076411;28;20055;-70
2022/07/20 06:45:38;;;;;;;1.58;1.10;;;;;;;18.12;61.23;101074.34;5094389;28;20039;-72
2022/07/20 06:48:03;;;;;;;4.20;1.23;;;;;;;18.24;61.02;101075.44;5094630;28;20040;-71
2022/07/20 06:50:29;;;;;;;4.65;1.30;;;;;;;18.17;61.50;101066.47;5094110;28;20039;-70
2022/07/20 06:52:55;;;;;;;2.00;1.38;;;;;;;18.31;61.15;101071.91;5094408;28;20470;-70
2022/07/20 06:55:22;;;;;;;4.93;1.77;;;;;;;18.38;60.24;101072.72;5076063;28;20035;-71
2022/07/20 06:57:48;;;;;;;2.13;1.05;;;;;;;18.48;59.28;101067.75;5094163;28;20089;-71
2022/07/20 07:00:14;;;;;;;1.92;1.55;;;;;;;18.38;58.99;101068.16;5094144;28;20032;-71
2022/07/20 07:02:41;;;;;;;2.03;1.20;;;;;;;18.35;59.28;101079.38;5093956;28;20509;-71
2022/07/20 07:05:07;;;;;;;4.13;1.35;;;;;;;18.34;59.33;101076.88;5093957;28;20058;-70
2022/07/20 07:07:33;;;;;;;4.95;1.48;;;;;;;18.34;59.53;101079.56;5093727;28;20036;-70
2022/07/20 07:09:58;;;;;;;3.40;1.52;;;;;;;18.29;59.68;101082.91;5093809;28;20512;-71
2022/07/20 07:12:24;;;;;;;4.60;1.70;;;;;;;18.24;59.84;101094.31;5093964;28;20071;-69
2022/07/20 07:14:49;;;;;;;1.83;1.20;;;;;;;18.25;60.00;101085.19;5075707;28;20046;-75
2022/07/20 07:17:16;;;;;;;9.57;2.80;;;;;;;18.30;60.54;101086.41;5094137;28;20117;-70
2022/07/20 07:19:41;;;;;;;2.47;1.48;;;;;;;18.22;60.07;101072.09;5059151;28;20143;-68
2022/07/20 07:22:08;;;;;;;6.55;1.88;;;;;;;18.22;59.12;101080.19;5093520;28;20502;-69
2022/07/20 07:24:33;;;;;;;1.67;1.10;;;;;;;18.19;59.08;101090.53;5076177;28;20410;-73
2022/07/20 07:26:59;;;;;;;4.60;1.23;;;;;;;18.21;59.65;101100.09;5093592;28;20028;-70
2022/07/20 07:29:26;;;;;;;2.28;1.27;;;;;;;18.35;59.16;101086.63;5075053;28;20148;-69
2022/07/20 07:31:58;;;;;;;3.58;1.77;;;;;;;18.59;59.04;101075.25;5075644;28;20506;-67
2022/07/20 07:34:26;;;;;;;3.33;1.40;;;;;;;18.97;57.07;101088.09;5092606;28;20032;-74
2022/07/20 07:36:52;;;;;;;1.67;1.20;;;;;;;19.07;56.62;101069.59;5058439;28;20032;-70
2022/07/20 07:39:23;;;;;;;1.67;1.30;;;;;;;19.23;55.54;101092.63;5095583;28;20051;-74
2022/07/20 07:41:49;;;;;;;2.65;1.50;;;;;;;19.43;55.54;101096.94;5093590;28;20040;-72
2022/07/20 07:44:14;;;;;;;3.90;1.20;;;;;;;19.53;54.93;101082.16;5093796;28;20491;-75
2022/07/20 07:46:56;;;;;;;5.43;1.50;;;;;;;19.81;55.12;101093.50;5094434;28;20483;-78
2022/07/20 07:49:22;;;;;;;2.78;1.33;;;;;;;19.86;54.03;101082.88;5075960;28;20047;-70
2022/07/20 07:51:47;;;;;;;5.13;1.20;;;;;;;19.82;54.13;101070.00;5063897;28;20066;-70
2022/07/20 07:54:13;;;;;;;8.02;1.40;;;;;;;20.11;54.28;101085.66;5117951;28;20075;-72
2022/07/20 07:56:38;;;;;;;8.98;2.20;;;;;;;20.25;53.39;101072.88;5115467;28;20076;-71
2022/07/20 07:59:04;;;;;;;3.50;1.67;;;;;;;20.29;52.33;101087.63;5110441;28;20173;-75
2022/07/20 08:01:30;;;;;;;3.95;1.75;;;;;;;20.02;53.40;101085.06;5059642;28;20071;-69
2022/07/20 08:04:20;;;;;;;10.20;1.95;;;;;;;20.18;52.92;101096.41;5094094;28;20411;-70
2022/07/20 08:06:47;;;;;;;6.78;1.20;;;;;;;20.29;52.63;101072.22;5093729;28;20036;-73
2022/07/20 08:09:12;;;;;;;5.30;1.55;;;;;;;20.47;52.08;101079.59;5092985;28;20040;-73
2022/07/20 08:11:38;;;;;;;6.82;1.35;;;;;;;20.47;52.14;101079.59;5092963;28;20438;-69
2022/07/20 08:14:03;;;;;;;2.92;0.82;;;;;;;20.63;50.59;101079.06;5093240;28;20036;-76
2022/07/20 08:16:31;;;;;;;6.57;1.30;;;;;;;20.71;50.83;101088.78;5074618;28;20461;-70
2022/07/20 08:18:57;;;;;;;4.95;1.02;;;;;;;20.70;50.57;101098.78;5075017;28;20040;-69
2022/07/20 08:21:22;;;;;;;9.38;2.00;;;;;;;20.48;51.27;101080.41;5092890;28;20502;-70
2022/07/20 08:23:48;;;;;;;4.22;1.50;;;;;;;20.54;51.60;101093.09;5093059;28;20036;-69
2022/07/20 08:26:13;;;;;;;5.53;1.55;;;;;;;20.48;51.68;101086.66;5092642;28;20034;-68
2022/07/20 08:28:50;;;;;;;6.15;1.33;;;;;;;20.52;51.47;101084.34;5092585;28;20066;-75
2022/07/20 08:31:16;;;;;;;5.47;1.50;;;;;;;20.46;51.29;101091.47;5092033;28;20066;-68
2022/07/20 08:33:41;;;;;;;4.13;0.90;;;;;;;20.37;51.36;101106.28;5098180;28;20040;-70
2022/07/20 08:36:07;;;;;;;5.88;1.10;;;;;;;20.41;51.52;101097.53;5104070;28;20487;-71
2022/07/20 08:38:35;;;;;;;4.80;1.17;;;;;;;20.44;51.64;101095.44;5075162;28;20031;-74
2022/07/20 08:41:01;;;;;;;6.90;1.30;;;;;;;20.43;51.43;101100.03;5074528;28;20142;-73
2022/07/20 08:43:26;;;;;;;6.25;1.17;;;;;;;20.52;50.89;101096.00;5092324;28;20173;-71
2022/07/20 08:45:52;;;;;;;6.03;1.00;;;;;;;20.53;50.74;101094.97;5092019;28;20039;-70
2022/07/20 08:48:18;;;;;;;6.78;1.17;;;;;;;20.51;50.75;101102.44;5057555;28;20032;-73
2022/07/20 08:50:45;;;;;;;4.85;1.02;;;;;;;20.57;50.86;101085.38;5092216;28;20514;-69
2022/07/20 08:53:11;;;;;;;3.13;1.20;;;;;;;20.60;50.54;101090.31;5093369;28;20036;-70
2022/07/20 08:55:37;;;;;;;8.05;1.23;;;;;;;20.58;50.70;101081.59;5093279;28;20028;-71
2022/07/20 08:58:02;;;;;;;3.17;0.90;;;;;;;20.54;50.24;101077.69;5092145;28;20500;-70
2022/07/20 09:00:28;;;;;;;2.78;0.93;;;;;;;20.21;50.50;101090.56;5092313;28;20540;-68
2022/07/20 09:03:01;;;;;;;10.68;1.60;;;;;;;20.06;50.81;101086.31;5092099;28;20044;-70
2022/07/20 09:05:28;;;;;;;8.70;1.20;;;;;;;20.05;51.29;101092.75;5092225;28;20067;-71
2022/07/20 09:07:55;;;;;;;2.78;1.17;;;;;;;19.98;51.26;101075.75;5092133;28;20032;-69
2022/07/20 09:10:26;;;;;;;5.57;1.10;;;;;;;19.91;51.25;101074.09;5074548;28;20042;-73
2022/07/20 09:13:22;;;;;;;5.68;0.98;;;;;;;19.97;51.38;101082.19;5092321;28;20028;-71
2022/07/20 09:15:49;;;;;;;6.22;1.88;;;;;;;20.01;50.97;101080.72;5071536;28;20662;-70
2022/07/20 09:18:24;;;;;;;3.13;1.77;;;;;;;20.13;50.97;101085.44;5058836;28;20031;-69
2022/07/20 09:20:57;;;;;;;3.28;1.55;;;;;;;20.25;51.16;101094.50;5094934;28;20039;-68
2022/07/20 09:23:27;;;;;;;6.43;1.90;;;;;;;20.39;50.34;101082.53;5093597;28;20043;-69
2022/07/20 09:25:56;;;;;;;4.32;1.13;;;;;;;20.28;49.64;101080.56;5102537;28;20031;-72
2022/07/20 09:28:37;;;;;;;6.55;1.48;;;;;;;20.28;50.45;101085.97;5103214;28;20060;-72
2022/07/20 09:31:38;;;;;;;4.60;1.23;;;;;;;20.21;50.78;101090.56;5098871;28;20434;-71
2022/07/20 09:34:03;;;;;;;;;;;;;;;20.20;50.90;101078.09;5093149;28;20032;-69
2022/07/20 09:36:32;;;;;;;2.15;1.30;;;;;;;20.11;50.30;101077.53;5092527;28;19916;-68
2022/07/20 09:39:12;;;;;;;5.03;1.83;;;;;;;20.08;50.93;101076.09;5095930;28;20058;-69
2022/07/20 09:41:39;;;;;;;5.38;1.70;;;;;;;20.28;50.81;101075.97;5100617;28;20028;-71
2022/07/20 09:44:06;;;;;;;8.50;2.40;;;;;;;20.34;50.25;101074.25;5099678;28;20031;-68
2022/07/20 09:46:34;;;;;;;3.08;1.83;;;;;;;20.51;50.11;101064.56;5094960;28;20285;-71
2022/07/20 09:49:03;;;;;;;7.20;1.92;;;;;;;20.73;49.42;101059.59;5073823;28;20039;-68
2022/07/20 09:51:40;;;;;;;4.88;1.58;;;;;;;20.86;49.10;101055.97;5091891;28;20126;-66
2022/07/20 09:54:17;;;;;;;6.82;1.27;;;;;;;20.97;48.62;101052.50;5091577;28;20487;-66
2022/07/20 09:56:47;;;;;;;12.98;2.35;;;;;;;21.15;48.47;101065.25;5092522;28;20073;-66
2022/07/20 09:59:13;;;;;;;4.00;1.63;;;;;;;21.27;47.95;101061.59;5095648;28;20046;-67
2022/07/20 10:01:45;;;;;;;5.85;1.63;;;;;;;21.34;47.98;101070.47;5095495;28;20040;-66
2022/07/20 10:04:11;;;;;;;3.90;1.20;;;;;;;21.33;47.66;101062.56;5095307;28;20046;-65
2022/07/20 10:06:40;;;;;;;3.83;1.13;;;;;;;21.29;47.79;101059.47;5095294;28;20048;-67
2022/07/20 10:09:07;;;;;;;8.30;1.77;;;;;;;21.39;47.67;101047.28;5094952;28;20040;-67
2022/07/20 10:11:33;;;;;;;7.88;1.60;;;;;;;21.39;47.82;101058.09;5095350;28;20266;-70
2022/07/20 10:14:01;;;;;;;9.05;1.17;;;;;;;21.37;48.07;101068.34;5095292;28;20078;-67
2022/07/20 10:16:31;;;;;;;4.60;1.20;;;;;;;21.25;48.54;101063.69;5094995;28;20552;-70
2022/07/20 10:18:58;;;;;;;5.38;1.55;;;;;;;21.22;48.35;101064.13;5095170;28;20480;-69
2022/07/20 10:21:40;;;;;;;10.07;6.07;;;;;;;21.18;48.85;101073.75;5094868;28;20044;-68
2022/07/20 10:24:27;;;;;;;9.98;5.43;;;;;;;21.16;48.54;101070.44;5094948;28;20047;-69
2022/07/20 10:27:16;;;;;;;18.45;3.00;;;;;;;20.96;49.18;101050.84;5094728;28;20644;-67
2022/07/20 10:29:49;;;;;;;9.27;2.63;;;;;;;21.14;48.98;101069.00;5094178;28;20052;-67
2022/07/20 10:32:20;;;;;;;6.10;1.50;;;;;;;21.16;48.74;101061.50;5094767;28;20072;-68
2022/07/20 10:34:51;;;;;;;3.47;1.33;;;;;;;21.14;48.55;101059.00;5094846;28;20139;-70
2022/07/20 10:37:42;;;;;;;5.28;1.00;;;;;;;21.19;48.37;101078.13;5094723;28;20024;-69
2022/07/20 10:40:15;;;;;;;6.28;1.58;;;;;;;21.20;48.15;101073.53;5094521;28;20050;-69
2022/07/20 10:42:41;;;;;;;6.32;1.95;;;;;;;21.11;48.72;101066.75;5094529;28;20032;-68
2022/07/20 10:45:19;;;;;;;2.60;2.35;;;;;;;21.13;49.39;101080.91;5094445;28;20113;-67
2022/07/20 10:47:52;;;;;;;6.22;1.45;;;;;;;21.02;48.99;101071.63;5094609;28;20044;-69
2022/07/20 10:50:27;;;;;;;4.50;1.55;;;;;;;20.95;49.38;101071.69;5094267;28;20503;-69
2022/07/20 10:52:59;;;;;;;9.32;6.13;;;;;;;20.78;49.43;101076.00;5095318;28;20043;-69
2022/07/20 10:55:34;;;;;;;7.88;3.78;;;;;;;20.68;50.62;101084.63;5100369;28;20028;-68
2022/07/20 10:58:07;;;;;;;5.28;2.35;;;;;;;20.62;50.50;101065.75;5094779;28;20032;-68
2022/07/20 11:00:41;;;;;;;4.90;1.92;;;;;;;20.54;50.46;101083.09;5093985;28;20070;-70
2022/07/20 11:03:27;;;;;;;4.18;1.20;;;;;;;20.40;50.10;101079.66;5076254;28;20487;-69
2022/07/20 11:06:08;;;;;;;8.05;1.08;;;;;;;20.51;50.54;101086.22;5094094;28;20556;-67
2022/07/20 11:08:56;;;;;;;12.15;1.65;;;;;;;20.46;50.28;101087.94;5093385;28;20048;-69
2022/07/20 11:11:27;;;;;;;7.53;1.80;;;;;;;20.48;50.95;101094.78;5092919;28;20040;-69
2022/07/20 11:13:53;;;;;;;14.38;1.33;;;;;;;20.54;49.72;101102.03;5093990;28;20104;-68
2022/07/20 11:16:26;;;;;;;4.72;1.10;;;;;;;20.64;49.50;101099.66;5075966;28;20035;-70
2022/07/20 11:18:53;;;;;;;6.20;1.00;;;;;;;20.76;48.98;101107.88;5093668;28;20475;-68
2022/07/20 11:21:40;;;;;;;10.55;1.20;;;;;;;20.73;49.39;101103.75;5093748;28;20036;-69
2022/07/20 11:24:27;;;;;;;4.68;1.13;;;;;;;20.80;49.15;101110.97;5093731;28;20070;-70
2022/07/20 11:26:53;;;;;;;9.40;1.10;;;;;;;20.68;49.40;101092.75;5093832;28;20040;-68
2022/07/20 11:29:19;;;;;;;7.93;1.30;;;;;;;20.75;49.56;101110.81;5093451;28;20040;-68